sensor_id;sensor_type;location;lat;lon;timestamp;temperature;humidity
19862;DHT22;10093;48.148;8.542;2023-11-21T00:02:18;5.80;99.90
19862;DHT22;10093;48.148;8.542;2023-11-21T00:04:43;5.90;99.90
19862;DHT22;10093;48.148;8.542;2023-11-21T00:07:09;5.90;99.90
19862;DHT22;10093;48.148;8.542;2023-11-21T00:09:34;5.90;99.90
19862;DHT22;10093;48.148;8.542;2023-11-21T00:12:02;5.80;99.90
19862;DHT22;10093;48.148;8.542;2023-11-21T00:14:28;5.70;99.90
19862;DHT22;10093;48.148;8.542;2023-11-21T00:16:53;5.90;99.90
19862;DHT22;10093;48.148;8.542;2023-11-21T00:19:19;6.00;99.90
19862;DHT22;10093;48.148;8.542;2023-11-21T00:21:45;6.00;99.90
19862;DHT22;10093;48.148;8.542;2023-11-21T00:24:12;5.90;99.90
19862;DHT22;10093;48.148;8.542;2023-11-21T00:26:39;5.80;99.90
19862;DHT22;10093;48.148;8.542;2023-11-21T00:29:05;5.80;99.90
19862;DHT22;10093;48.148;8.542;2023-11-21T00:31:34;5.70;99.90
19862;DHT22;10093;48.148;8.542;2023-11-21T00:34:03;5.70;99.90
19862;DHT22;10093;48.148;8.542;2023-11-21T00:36:31;5.70;99.90
19862;DHT22;10093;48.148;8.542;2023-11-21T00:38:58;5.80;99.90
19862;DHT22;10093;48.148;8.542;2023-11-21T00:41:24;5.70;99.90
19862;DHT22;10093;48.148;8.542;2023-11-21T00:43:53;5.80;99.90
19862;DHT22;10093;48.148;8.542;2023-11-21T00:46:19;5.70;99.90
19862;DHT22;10093;48.148;8.542;2023-11-21T00:48:44;5.60;99.90
19862;DHT22;10093;48.148;8.542;2023-11-21T00:51:10;5.60;99.90
19862;DHT22;10093;48.148;8.542;2023-11-21T00:53:35;5.50;99.90
19862;DHT22;10093;48.148;8.542;2023-11-21T00:56:01;5.50;99.90
19862;DHT22;10093;48.148;8.542;2023-11-21T00:58:28;5.50;99.90
19862;DHT22;10093;48.148;8.542;2023-11-21T01:00:53;5.50;99.90
19862;DHT22;10093;48.148;8.542;2023-11-21T01:03:19;5.60;99.90
19862;DHT22;10093;48.148;8.542;2023-11-21T01:05:45;5.50;99.90
19862;DHT22;10093;48.148;8.542;2023-11-21T01:08:11;5.70;99.90
19862;DHT22;10093;48.148;8.542;2023-11-21T01:10:37;5.80;99.90
19862;DHT22;10093;48.148;8.542;2023-11-21T01:13:03;6.00;99.90
19862;DHT22;10093;48.148;8.542;2023-11-21T01:15:33;5.80;99.90
19862;DHT22;10093;48.148;8.542;2023-11-21T01:17:58;5.80;99.90
19862;DHT22;10093;48.148;8.542;2023-11-21T01:20:24;5.80;99.90
19862;DHT22;10093;48.148;8.542;2023-11-21T01:22:50;5.70;99.90
19862;DHT22;10093;48.148;8.542;2023-11-21T01:25:16;5.70;99.90
19862;DHT22;10093;48.148;8.542;2023-11-21T01:27:42;5.70;99.90
19862;DHT22;10093;48.148;8.542;2023-11-21T01:30:08;5.70;99.90
19862;DHT22;10093;48.148;8.542;2023-11-21T01:32:36;5.70;99.90
19862;DHT22;10093;48.148;8.542;2023-11-21T01:35:02;5.60;99.90
19862;DHT22;10093;48.148;8.542;2023-11-21T01:37:27;5.80;99.90
19862;DHT22;10093;48.148;8.542;2023-11-21T01:39:54;5.90;99.90
19862;DHT22;10093;48.148;8.542;2023-11-21T01:42:20;6.00;99.90
19862;DHT22;10093;48.148;8.542;2023-11-21T01:44:46;5.80;99.90
19862;DHT22;10093;48.148;8.542;2023-11-21T01:47:13;5.80;99.90
19862;DHT22;10093;48.148;8.542;2023-11-21T01:49:39;5.80;99.90
19862;DHT22;10093;48.148;8.542;2023-11-21T01:52:05;5.80;99.90
19862;DHT22;10093;48.148;8.542;2023-11-21T01:54:32;5.90;99.90
19862;DHT22;10093;48.148;8.542;2023-11-21T01:57:01;5.80;99.90
19862;DHT22;10093;48.148;8.542;2023-11-21T01:59:33;5.90;99.90
19862;DHT22;10093;48.148;8.542;2023-11-21T02:01:59;5.70;99.90
19862;DHT22;10093;48.148;8.542;2023-11-21T02:04:25;5.60;99.90
19862;DHT22;10093;48.148;8.542;2023-11-21T02:06:51;5.70;99.90
19862;DHT22;10093;48.148;8.542;2023-11-21T02:09:17;5.60;99.90
19862;DHT22;10093;48.148;8.542;2023-11-21T02:11:43;5.60;99.90
19862;DHT22;10093;48.148;8.542;2023-11-21T02:14:09;5.50;99.90
19862;DHT22;10093;48.148;8.542;2023-11-21T02:16:36;5.40;99.90
19862;DHT22;10093;48.148;8.542;2023-11-21T02:19:04;5.50;99.90
19862;DHT22;10093;48.148;8.542;2023-11-21T02:21:34;5.50;99.90
19862;DHT22;10093;48.148;8.542;2023-11-21T02:24:01;5.70;99.90
19862;DHT22;10093;48.148;8.542;2023-11-21T02:26:27;5.70;99.90
19862;DHT22;10093;48.148;8.542;2023-11-21T02:28:52;5.90;99.90
19862;DHT22;10093;48.148;8.542;2023-11-21T02:31:18;5.80;99.90
19862;DHT22;10093;48.148;8.542;2023-11-21T02:33:44;5.70;99.90
19862;DHT22;10093;48.148;8.542;2023-11-21T02:36:10;5.70;99.90
19862;DHT22;10093;48.148;8.542;2023-11-21T02:38:35;5.70;99.90
19862;DHT22;10093;48.148;8.542;2023-11-21T02:41:01;5.60;99.90
19862;DHT22;10093;48.148;8.542;2023-11-21T02:43:26;5.70;99.90
19862;DHT22;10093;48.148;8.542;2023-11-21T02:45:52;5.60;99.90
19862;DHT22;10093;48.148;8.542;2023-11-21T02:48:18;5.50;99.90
19862;DHT22;10093;48.148;8.542;2023-11-21T02:50:43;5.30;99.90
19862;DHT22;10093;48.148;8.542;2023-11-21T02:53:09;5.00;99.90
19862;DHT22;10093;48.148;8.542;2023-11-21T02:55:36;4.80;99.90
19862;DHT22;10093;48.148;8.542;2023-11-21T02:58:02;4.60;99.90
19862;DHT22;10093;48.148;8.542;2023-11-21T03:00:29;4.60;99.90
19862;DHT22;10093;48.148;8.542;2023-11-21T03:02:56;4.40;99.90
19862;DHT22;10093;48.148;8.542;2023-11-21T03:05:22;4.40;99.90
19862;DHT22;10093;48.148;8.542;2023-11-21T03:07:47;4.50;99.90
19862;DHT22;10093;48.148;8.542;2023-11-21T03:10:13;4.40;99.90
19862;DHT22;10093;48.148;8.542;2023-11-21T03:12:39;4.30;99.90
19862;DHT22;10093;48.148;8.542;2023-11-21T03:15:06;4.20;99.90
19862;DHT22;10093;48.148;8.542;2023-11-21T03:17:31;4.10;99.90
19862;DHT22;10093;48.148;8.542;2023-11-21T03:19:59;4.00;99.90
19862;DHT22;10093;48.148;8.542;2023-11-21T03:22:25;4.20;99.90
19862;DHT22;10093;48.148;8.542;2023-11-21T03:24:50;4.10;99.90
19862;DHT22;10093;48.148;8.542;2023-11-21T03:27:16;4.00;99.90
19862;DHT22;10093;48.148;8.542;2023-11-21T03:29:42;4.10;99.90
19862;DHT22;10093;48.148;8.542;2023-11-21T03:32:07;4.30;99.90
19862;DHT22;10093;48.148;8.542;2023-11-21T03:34:33;4.30;99.90
19862;DHT22;10093;48.148;8.542;2023-11-21T03:36:58;4.30;99.90
19862;DHT22;10093;48.148;8.542;2023-11-21T03:39:24;4.30;99.90
19862;DHT22;10093;48.148;8.542;2023-11-21T03:41:51;4.20;99.90
19862;DHT22;10093;48.148;8.542;2023-11-21T03:44:17;4.10;99.90
19862;DHT22;10093;48.148;8.542;2023-11-21T03:46:43;4.00;99.90
19862;DHT22;10093;48.148;8.542;2023-11-21T03:49:09;4.00;99.90
19862;DHT22;10093;48.148;8.542;2023-11-21T03:51:36;4.10;99.90
19862;DHT22;10093;48.148;8.542;2023-11-21T03:54:02;4.30;99.90
19862;DHT22;10093;48.148;8.542;2023-11-21T03:56:28;4.20;99.90
19862;DHT22;10093;48.148;8.542;2023-11-21T03:58:54;4.10;99.90
19862;DHT22;10093;48.148;8.542;2023-11-21T04:01:22;4.10;99.90
19862;DHT22;10093;48.148;8.542;2023-11-21T04:03:49;4.00;99.90
19862;DHT22;10093;48.148;8.542;2023-11-21T04:06:15;4.00;99.90
19862;DHT22;10093;48.148;8.542;2023-11-21T04:08:43;4.00;99.90
19862;DHT22;10093;48.148;8.542;2023-11-21T04:11:09;4.00;99.90
19862;DHT22;10093;48.148;8.542;2023-11-21T04:13:40;4.10;99.90
19862;DHT22;10093;48.148;8.542;2023-11-21T04:16:06;4.10;99.90
19862;DHT22;10093;48.148;8.542;2023-11-21T04:18:33;4.20;99.90
19862;DHT22;10093;48.148;8.542;2023-11-21T04:20:59;4.20;99.90
19862;DHT22;10093;48.148;8.542;2023-11-21T04:23:25;4.20;99.90
19862;DHT22;10093;48.148;8.542;2023-11-21T04:25:50;4.30;99.90
19862;DHT22;10093;48.148;8.542;2023-11-21T04:28:16;4.30;99.90
19862;DHT22;10093;48.148;8.542;2023-11-21T04:30:41;4.30;99.90
19862;DHT22;10093;48.148;8.542;2023-11-21T04:33:07;4.20;99.90
19862;DHT22;10093;48.148;8.542;2023-11-21T04:35:33;4.00;99.90
19862;DHT22;10093;48.148;8.542;2023-11-21T04:37:58;3.80;99.90
19862;DHT22;10093;48.148;8.542;2023-11-21T04:40:25;3.80;99.90
19862;DHT22;10093;48.148;8.542;2023-11-21T04:42:52;3.90;99.90
19862;DHT22;10093;48.148;8.542;2023-11-21T04:45:18;4.10;99.90
19862;DHT22;10093;48.148;8.542;2023-11-21T04:47:43;4.00;99.90
19862;DHT22;10093;48.148;8.542;2023-11-21T04:50:09;4.00;99.90
19862;DHT22;10093;48.148;8.542;2023-11-21T04:52:35;3.70;99.90
19862;DHT22;10093;48.148;8.542;2023-11-21T04:55:00;3.50;99.90
19862;DHT22;10093;48.148;8.542;2023-11-21T04:57:27;3.30;99.90
19862;DHT22;10093;48.148;8.542;2023-11-21T04:59:54;3.10;99.90
19862;DHT22;10093;48.148;8.542;2023-11-21T05:02:19;3.10;99.90
19862;DHT22;10093;48.148;8.542;2023-11-21T05:04:47;3.20;99.90
19862;DHT22;10093;48.148;8.542;2023-11-21T05:07:12;3.30;99.90
19862;DHT22;10093;48.148;8.542;2023-11-21T05:09:44;3.10;99.90
19862;DHT22;10093;48.148;8.542;2023-11-21T05:12:12;3.00;99.90
19862;DHT22;10093;48.148;8.542;2023-11-21T05:17:50;3.00;99.90
19862;DHT22;10093;48.148;8.542;2023-11-21T05:20:17;3.00;99.90
19862;DHT22;10093;48.148;8.542;2023-11-21T05:22:49;2.90;99.90
19862;DHT22;10093;48.148;8.542;2023-11-21T05:25:15;2.90;99.90
19862;DHT22;10093;48.148;8.542;2023-11-21T05:27:44;2.90;99.90
19862;DHT22;10093;48.148;8.542;2023-11-21T05:30:10;2.90;99.90
19862;DHT22;10093;48.148;8.542;2023-11-21T05:32:38;2.90;99.90
19862;DHT22;10093;48.148;8.542;2023-11-21T05:35:04;2.90;99.90
19862;DHT22;10093;48.148;8.542;2023-11-21T05:37:35;2.70;99.90
19862;DHT22;10093;48.148;8.542;2023-11-21T05:40:01;2.70;99.90
19862;DHT22;10093;48.148;8.542;2023-11-21T05:42:32;3.10;99.90
19862;DHT22;10093;48.148;8.542;2023-11-21T05:44:58;3.20;99.90
19862;DHT22;10093;48.148;8.542;2023-11-21T05:47:39;3.10;99.90
19862;DHT22;10093;48.148;8.542;2023-11-21T05:50:10;2.80;99.90
19862;DHT22;10093;48.148;8.542;2023-11-21T05:52:38;2.60;99.90
19862;DHT22;10093;48.148;8.542;2023-11-21T05:55:05;2.50;99.90
19862;DHT22;10093;48.148;8.542;2023-11-21T05:57:39;2.30;99.90
19862;DHT22;10093;48.148;8.542;2023-11-21T06:00:10;2.30;99.90
19862;DHT22;10093;48.148;8.542;2023-11-21T06:02:40;2.70;99.90
19862;DHT22;10093;48.148;8.542;2023-11-21T06:05:09;2.70;99.90
19862;DHT22;10093;48.148;8.542;2023-11-21T06:07:36;2.50;99.90
19862;DHT22;10093;48.148;8.542;2023-11-21T06:10:05;2.40;99.90
19862;DHT22;10093;48.148;8.542;2023-11-21T06:12:37;2.40;99.90
19862;DHT22;10093;48.148;8.542;2023-11-21T06:15:04;2.40;99.90
19862;DHT22;10093;48.148;8.542;2023-11-21T06:17:31;2.40;99.90
19862;DHT22;10093;48.148;8.542;2023-11-21T06:19:56;2.60;99.90
19862;DHT22;10093;48.148;8.542;2023-11-21T06:22:22;2.80;99.90
19862;DHT22;10093;48.148;8.542;2023-11-21T06:24:48;2.90;99.90
19862;DHT22;10093;48.148;8.542;2023-11-21T06:27:13;2.70;99.90
19862;DHT22;10093;48.148;8.542;2023-11-21T06:29:39;2.50;99.90
19862;DHT22;10093;48.148;8.542;2023-11-21T06:32:05;2.30;99.90
19862;DHT22;10093;48.148;8.542;2023-11-21T06:34:31;2.30;99.90
19862;DHT22;10093;48.148;8.542;2023-11-21T06:36:56;2.40;99.90
19862;DHT22;10093;48.148;8.542;2023-11-21T06:39:22;2.30;99.90
19862;DHT22;10093;48.148;8.542;2023-11-21T06:41:51;2.40;99.90
19862;DHT22;10093;48.148;8.542;2023-11-21T06:44:17;2.50;99.90
19862;DHT22;10093;48.148;8.542;2023-11-21T06:46:42;2.60;99.90
19862;DHT22;10093;48.148;8.542;2023-11-21T06:49:08;2.60;99.90
19862;DHT22;10093;48.148;8.542;2023-11-21T06:51:34;2.60;99.90
19862;DHT22;10093;48.148;8.542;2023-11-21T06:54:00;2.80;99.90
19862;DHT22;10093;48.148;8.542;2023-11-21T06:56:25;2.90;99.90
19862;DHT22;10093;48.148;8.542;2023-11-21T06:58:51;2.90;99.90
19862;DHT22;10093;48.148;8.542;2023-11-21T07:01:19;2.90;99.90
19862;DHT22;10093;48.148;8.542;2023-11-21T07:03:48;3.00;99.90
19862;DHT22;10093;48.148;8.542;2023-11-21T07:06:13;3.10;99.90
19862;DHT22;10093;48.148;8.542;2023-11-21T07:08:39;3.20;99.90
19862;DHT22;10093;48.148;8.542;2023-11-21T07:11:04;3.30;99.90
19862;DHT22;10093;48.148;8.542;2023-11-21T07:13:30;3.50;99.90
19862;DHT22;10093;48.148;8.542;2023-11-21T07:15:58;3.60;99.90
19862;DHT22;10093;48.148;8.542;2023-11-21T07:18:24;3.60;99.90
19862;DHT22;10093;48.148;8.542;2023-11-21T07:20:50;3.70;99.90
19862;DHT22;10093;48.148;8.542;2023-11-21T07:23:15;3.80;99.90
19862;DHT22;10093;48.148;8.542;2023-11-21T07:25:41;3.90;99.90
19862;DHT22;10093;48.148;8.542;2023-11-21T07:28:08;3.80;99.90
19862;DHT22;10093;48.148;8.542;2023-11-21T07:30:34;3.60;99.90
19862;DHT22;10093;48.148;8.542;2023-11-21T07:33:00;3.60;99.90
19862;DHT22;10093;48.148;8.542;2023-11-21T07:35:26;3.60;99.90
19862;DHT22;10093;48.148;8.542;2023-11-21T07:37:52;3.80;99.90
19862;DHT22;10093;48.148;8.542;2023-11-21T07:40:17;4.10;99.90
19862;DHT22;10093;48.148;8.542;2023-11-21T07:42:43;4.20;99.90
19862;DHT22;10093;48.148;8.542;2023-11-21T07:45:09;4.20;99.90
19862;DHT22;10093;48.148;8.542;2023-11-21T07:47:34;4.20;99.90
19862;DHT22;10093;48.148;8.542;2023-11-21T07:50:04;4.30;99.90
19862;DHT22;10093;48.148;8.542;2023-11-21T07:52:29;4.60;99.90
19862;DHT22;10093;48.148;8.542;2023-11-21T07:54:55;4.50;99.90
19862;DHT22;10093;48.148;8.542;2023-11-21T07:57:21;4.50;99.90
19862;DHT22;10093;48.148;8.542;2023-11-21T07:59:47;4.60;99.90
19862;DHT22;10093;48.148;8.542;2023-11-21T08:02:12;4.90;99.90
19862;DHT22;10093;48.148;8.542;2023-11-21T08:04:38;4.80;99.90
19862;DHT22;10093;48.148;8.542;2023-11-21T08:07:04;4.90;99.90
19862;DHT22;10093;48.148;8.542;2023-11-21T08:09:29;4.90;99.90
19862;DHT22;10093;48.148;8.542;2023-11-21T08:11:55;4.90;99.90
19862;DHT22;10093;48.148;8.542;2023-11-21T08:14:22;5.10;99.90
19862;DHT22;10093;48.148;8.542;2023-11-21T08:16:47;5.10;99.90
19862;DHT22;10093;48.148;8.542;2023-11-21T08:19:13;5.30;99.90
19862;DHT22;10093;48.148;8.542;2023-11-21T08:21:38;5.50;99.90
19862;DHT22;10093;48.148;8.542;2023-11-21T08:24:06;5.60;99.90
19862;DHT22;10093;48.148;8.542;2023-11-21T08:26:36;5.60;99.90
19862;DHT22;10093;48.148;8.542;2023-11-21T08:29:02;5.60;99.90
19862;DHT22;10093;48.148;8.542;2023-11-21T08:31:27;5.60;99.90
19862;DHT22;10093;48.148;8.542;2023-11-21T08:33:54;5.80;99.90
19862;DHT22;10093;48.148;8.542;2023-11-21T08:36:21;5.90;99.90
19862;DHT22;10093;48.148;8.542;2023-11-21T08:38:49;5.80;99.90
19862;DHT22;10093;48.148;8.542;2023-11-21T08:41:15;6.00;99.90
19862;DHT22;10093;48.148;8.542;2023-11-21T08:43:41;5.90;99.90
19862;DHT22;10093;48.148;8.542;2023-11-21T08:46:07;6.10;99.90
19862;DHT22;10093;48.148;8.542;2023-11-21T08:48:36;6.20;99.90
19862;DHT22;10093;48.148;8.542;2023-11-21T08:51:03;6.50;99.90
19862;DHT22;10093;48.148;8.542;2023-11-21T08:53:29;6.60;99.90
19862;DHT22;10093;48.148;8.542;2023-11-21T08:55:56;6.70;99.90
19862;DHT22;10093;48.148;8.542;2023-11-21T08:58:22;6.90;99.90
19862;DHT22;10093;48.148;8.542;2023-11-21T09:00:48;7.20;99.90
19862;DHT22;10093;48.148;8.542;2023-11-21T09:03:13;7.30;99.90
19862;DHT22;10093;48.148;8.542;2023-11-21T09:05:39;7.50;99.90
19862;DHT22;10093;48.148;8.542;2023-11-21T09:08:05;7.60;99.90
19862;DHT22;10093;48.148;8.542;2023-11-21T09:10:35;7.80;99.90
19862;DHT22;10093;48.148;8.542;2023-11-21T09:13:02;7.80;99.90
19862;DHT22;10093;48.148;8.542;2023-11-21T09:15:28;7.70;99.90
19862;DHT22;10093;48.148;8.542;2023-11-21T09:17:53;7.70;99.90
19862;DHT22;10093;48.148;8.542;2023-11-21T09:20:19;7.60;99.90
19862;DHT22;10093;48.148;8.542;2023-11-21T09:22:48;7.60;99.90
19862;DHT22;10093;48.148;8.542;2023-11-21T09:25:14;7.60;99.90
19862;DHT22;10093;48.148;8.542;2023-11-21T09:27:40;7.60;99.90
19862;DHT22;10093;48.148;8.542;2023-11-21T09:30:06;7.80;99.90
19862;DHT22;10093;48.148;8.542;2023-11-21T09:32:35;7.90;99.90
19862;DHT22;10093;48.148;8.542;2023-11-21T09:35:03;8.00;99.90
19862;DHT22;10093;48.148;8.542;2023-11-21T09:37:29;8.10;99.90
19862;DHT22;10093;48.148;8.542;2023-11-21T09:39:55;8.40;99.90
19862;DHT22;10093;48.148;8.542;2023-11-21T09:42:28;8.70;99.90
19862;DHT22;10093;48.148;8.542;2023-11-21T09:45:35;9.10;99.90
19862;DHT22;10093;48.148;8.542;2023-11-21T09:48:00;9.30;99.90
19862;DHT22;10093;48.148;8.542;2023-11-21T09:50:27;9.30;99.90
19862;DHT22;10093;48.148;8.542;2023-11-21T09:53:16;9.20;99.90
19862;DHT22;10093;48.148;8.542;2023-11-21T09:55:44;9.20;99.90
19862;DHT22;10093;48.148;8.542;2023-11-21T09:58:10;9.10;99.90
19862;DHT22;10093;48.148;8.542;2023-11-21T10:00:44;9.10;99.90
19862;DHT22;10093;48.148;8.542;2023-11-21T10:03:10;8.90;99.90
19862;DHT22;10093;48.148;8.542;2023-11-21T10:05:37;8.80;99.90
19862;DHT22;10093;48.148;8.542;2023-11-21T10:08:09;8.60;99.90
19862;DHT22;10093;48.148;8.542;2023-11-21T10:10:35;8.40;99.90
19862;DHT22;10093;48.148;8.542;2023-11-21T10:13:03;8.30;99.90
19862;DHT22;10093;48.148;8.542;2023-11-21T10:15:33;8.30;99.90
19862;DHT22;10093;48.148;8.542;2023-11-21T10:18:05;8.30;99.90
19862;DHT22;10093;48.148;8.542;2023-11-21T10:20:33;8.10;99.90
19862;DHT22;10093;48.148;8.542;2023-11-21T10:23:03;8.00;99.90
19862;DHT22;10093;48.148;8.542;2023-11-21T10:25:32;7.80;99.90
19862;DHT22;10093;48.148;8.542;2023-11-21T10:28:01;7.70;99.90
19862;DHT22;10093;48.148;8.542;2023-11-21T10:30:34;7.80;99.90
19862;DHT22;10093;48.148;8.542;2023-11-21T10:33:03;7.80;99.90
19862;DHT22;10093;48.148;8.542;2023-11-21T10:35:48;7.90;99.90
19862;DHT22;10093;48.148;8.542;2023-11-21T10:38:20;7.90;99.90
19862;DHT22;10093;48.148;8.542;2023-11-21T10:40:50;7.90;99.90
19862;DHT22;10093;48.148;8.542;2023-11-21T10:43:17;7.90;99.90
19862;DHT22;10093;48.148;8.542;2023-11-21T10:45:43;8.00;99.90
19862;DHT22;10093;48.148;8.542;2023-11-21T10:48:10;8.00;99.90
19862;DHT22;10093;48.148;8.542;2023-11-21T10:50:37;8.10;99.90
19862;DHT22;10093;48.148;8.542;2023-11-21T10:53:03;8.20;99.90
19862;DHT22;10093;48.148;8.542;2023-11-21T10:55:30;8.30;99.90
19862;DHT22;10093;48.148;8.542;2023-11-21T10:57:59;8.30;99.90
19862;DHT22;10093;48.148;8.542;2023-11-21T11:00:26;8.30;99.90
19862;DHT22;10093;48.148;8.542;2023-11-21T11:02:53;8.30;99.90
19862;DHT22;10093;48.148;8.542;2023-11-21T11:05:24;8.30;99.90
19862;DHT22;10093;48.148;8.542;2023-11-21T11:07:57;8.30;99.90
19862;DHT22;10093;48.148;8.542;2023-11-21T11:10:26;8.30;99.90
19862;DHT22;10093;48.148;8.542;2023-11-21T11:12:56;8.40;99.90
19862;DHT22;10093;48.148;8.542;2023-11-21T11:15:23;8.30;99.90
19862;DHT22;10093;48.148;8.542;2023-11-21T11:17:49;8.40;99.90
19862;DHT22;10093;48.148;8.542;2023-11-21T11:20:16;8.00;99.90
19862;DHT22;10093;48.148;8.542;2023-11-21T11:26:12;8.20;99.90
19862;DHT22;10093;48.148;8.542;2023-11-21T11:29:08;8.50;99.90
19862;DHT22;10093;48.148;8.542;2023-11-21T11:34:32;8.50;99.90
19862;DHT22;10093;48.148;8.542;2023-11-21T11:37:04;8.70;99.90
19862;DHT22;10093;48.148;8.542;2023-11-21T11:42:08;9.00;99.90
19862;DHT22;10093;48.148;8.542;2023-11-21T11:47:22;8.90;99.90
19862;DHT22;10093;48.148;8.542;2023-11-21T11:50:30;9.10;99.90
19862;DHT22;10093;48.148;8.542;2023-11-21T11:52:51;9.00;99.90
19862;DHT22;10093;48.148;8.542;2023-11-21T11:55:19;9.20;99.90
19862;DHT22;10093;48.148;8.542;2023-11-21T11:57:47;9.30;99.90
19862;DHT22;10093;48.148;8.542;2023-11-21T12:00:14;9.40;99.90
19862;DHT22;10093;48.148;8.542;2023-11-21T12:02:51;9.50;99.90
19862;DHT22;10093;48.148;8.542;2023-11-21T12:05:19;9.40;99.90
19862;DHT22;10093;48.148;8.542;2023-11-21T12:07:51;9.10;99.90
19862;DHT22;10093;48.148;8.542;2023-11-21T12:10:22;9.00;99.90
19862;DHT22;10093;48.148;8.542;2023-11-21T12:12:51;9.10;99.90
19862;DHT22;10093;48.148;8.542;2023-11-21T12:15:18;8.80;99.90
19862;DHT22;10093;48.148;8.542;2023-11-21T12:17:45;8.80;99.90
19862;DHT22;10093;48.148;8.542;2023-11-21T12:20:15;8.70;99.90
19862;DHT22;10093;48.148;8.542;2023-11-21T12:22:46;8.60;99.90
19862;DHT22;10093;48.148;8.542;2023-11-21T12:25:22;8.40;99.90
19862;DHT22;10093;48.148;8.542;2023-11-21T12:27:50;8.30;99.90
19862;DHT22;10093;48.148;8.542;2023-11-21T12:30:24;8.20;99.90
19862;DHT22;10093;48.148;8.542;2023-11-21T12:32:51;8.20;99.90
19862;DHT22;10093;48.148;8.542;2023-11-21T12:35:19;8.30;99.90
19862;DHT22;10093;48.148;8.542;2023-11-21T12:37:48;8.50;99.90
19862;DHT22;10093;48.148;8.542;2023-11-21T12:40:15;8.50;99.90
19862;DHT22;10093;48.148;8.542;2023-11-21T12:43:01;8.50;99.90
19862;DHT22;10093;48.148;8.542;2023-11-21T12:45:29;8.60;99.90
19862;DHT22;10093;48.148;8.542;2023-11-21T12:48:04;8.80;99.90
19862;DHT22;10093;48.148;8.542;2023-11-21T12:50:34;8.80;99.90
19862;DHT22;10093;48.148;8.542;2023-11-21T12:53:07;8.80;99.90
19862;DHT22;10093;48.148;8.542;2023-11-21T12:55:34;8.90;99.90
19862;DHT22;10093;48.148;8.542;2023-11-21T12:58:05;8.80;99.90
19862;DHT22;10093;48.148;8.542;2023-11-21T13:03:04;8.70;99.90
19862;DHT22;10093;48.148;8.542;2023-11-21T13:05:37;8.60;99.90
19862;DHT22;10093;48.148;8.542;2023-11-21T13:08:11;8.80;99.90
19862;DHT22;10093;48.148;8.542;2023-11-21T13:10:40;9.10;99.90
19862;DHT22;10093;48.148;8.542;2023-11-21T13:13:09;9.30;99.90
19862;DHT22;10093;48.148;8.542;2023-11-21T13:15:46;9.10;99.90
19862;DHT22;10093;48.148;8.542;2023-11-21T13:18:12;9.40;99.90
19862;DHT22;10093;48.148;8.542;2023-11-21T13:20:39;9.60;99.90
19862;DHT22;10093;48.148;8.542;2023-11-21T13:23:08;9.80;99.90
19862;DHT22;10093;48.148;8.542;2023-11-21T13:25:34;9.70;99.90
19862;DHT22;10093;48.148;8.542;2023-11-21T13:28:00;9.70;99.90
19862;DHT22;10093;48.148;8.542;2023-11-21T13:30:26;9.80;99.90
19862;DHT22;10093;48.148;8.542;2023-11-21T13:32:53;10.00;99.90
19862;DHT22;10093;48.148;8.542;2023-11-21T13:35:23;10.10;99.90
19862;DHT22;10093;48.148;8.542;2023-11-21T13:38:13;10.00;99.90
19862;DHT22;10093;48.148;8.542;2023-11-21T13:40:40;9.80;99.90
19862;DHT22;10093;48.148;8.542;2023-11-21T13:43:10;10.00;99.90
19862;DHT22;10093;48.148;8.542;2023-11-21T13:45:37;9.90;99.90
19862;DHT22;10093;48.148;8.542;2023-11-21T13:48:05;9.70;99.90
19862;DHT22;10093;48.148;8.542;2023-11-21T13:50:38;9.40;99.90
19862;DHT22;10093;48.148;8.542;2023-11-21T13:53:04;9.20;99.90
19862;DHT22;10093;48.148;8.542;2023-11-21T13:55:44;9.00;99.90
19862;DHT22;10093;48.148;8.542;2023-11-21T13:58:10;8.70;99.90
19862;DHT22;10093;48.148;8.542;2023-11-21T14:00:42;8.60;99.90
19862;DHT22;10093;48.148;8.542;2023-11-21T14:03:13;8.60;99.90
19862;DHT22;10093;48.148;8.542;2023-11-21T14:05:48;8.70;99.90
19862;DHT22;10093;48.148;8.542;2023-11-21T14:08:20;8.70;99.90
19862;DHT22;10093;48.148;8.542;2023-11-21T14:10:47;8.60;99.90
19862;DHT22;10093;48.148;8.542;2023-11-21T14:13:23;8.60;99.90
19862;DHT22;10093;48.148;8.542;2023-11-21T14:15:50;8.60;99.90
19862;DHT22;10093;48.148;8.542;2023-11-21T14:18:23;8.60;99.90
19862;DHT22;10093;48.148;8.542;2023-11-21T14:20:56;8.50;99.90
19862;DHT22;10093;48.148;8.542;2023-11-21T14:23:21;8.30;99.90
19862;DHT22;10093;48.148;8.542;2023-11-21T14:25:49;8.40;99.90
19862;DHT22;10093;48.148;8.542;2023-11-21T14:28:16;8.50;99.90
19862;DHT22;10093;48.148;8.542;2023-11-21T14:30:42;8.40;99.90
19862;DHT22;10093;48.148;8.542;2023-11-21T14:33:08;8.50;99.90
19862;DHT22;10093;48.148;8.542;2023-11-21T14:35:36;8.50;99.90
19862;DHT22;10093;48.148;8.542;2023-11-21T14:38:02;8.60;99.90
19862;DHT22;10093;48.148;8.542;2023-11-21T14:40:31;8.60;99.90
19862;DHT22;10093;48.148;8.542;2023-11-21T14:43:00;8.50;99.90
19862;DHT22;10093;48.148;8.542;2023-11-21T14:45:26;8.40;99.90
19862;DHT22;10093;48.148;8.542;2023-11-21T14:47:52;8.30;99.90
19862;DHT22;10093;48.148;8.542;2023-11-21T14:50:30;8.40;99.90
19862;DHT22;10093;48.148;8.542;2023-11-21T14:53:04;8.20;99.90
19862;DHT22;10093;48.148;8.542;2023-11-21T14:55:35;7.80;99.90
19862;DHT22;10093;48.148;8.542;2023-11-21T14:58:19;7.70;99.90
19862;DHT22;10093;48.148;8.542;2023-11-21T15:00:57;7.50;99.90
19862;DHT22;10093;48.148;8.542;2023-11-21T15:03:27;7.40;99.90
19862;DHT22;10093;48.148;8.542;2023-11-21T15:05:57;7.30;99.90
19862;DHT22;10093;48.148;8.542;2023-11-21T15:08:25;7.20;99.90
19862;DHT22;10093;48.148;8.542;2023-11-21T15:10:57;7.10;99.90
19862;DHT22;10093;48.148;8.542;2023-11-21T15:13:23;6.80;99.90
19862;DHT22;10093;48.148;8.542;2023-11-21T15:15:51;6.70;99.90
19862;DHT22;10093;48.148;8.542;2023-11-21T15:18:20;6.60;99.90
19862;DHT22;10093;48.148;8.542;2023-11-21T15:20:46;6.50;99.90
19862;DHT22;10093;48.148;8.542;2023-11-21T15:23:12;6.50;99.90
19862;DHT22;10093;48.148;8.542;2023-11-21T15:25:45;6.50;99.90
19862;DHT22;10093;48.148;8.542;2023-11-21T15:28:10;6.30;99.90
19862;DHT22;10093;48.148;8.542;2023-11-21T15:30:36;6.10;99.90
19862;DHT22;10093;48.148;8.542;2023-11-21T15:33:02;6.00;99.90
19862;DHT22;10093;48.148;8.542;2023-11-21T15:35:29;6.10;99.90
19862;DHT22;10093;48.148;8.542;2023-11-21T15:37:55;6.20;99.90
19862;DHT22;10093;48.148;8.542;2023-11-21T15:40:24;6.10;99.90
19862;DHT22;10093;48.148;8.542;2023-11-21T15:42:50;6.00;99.90
19862;DHT22;10093;48.148;8.542;2023-11-21T15:45:17;6.10;99.90
19862;DHT22;10093;48.148;8.542;2023-11-21T15:47:46;6.30;99.90
19862;DHT22;10093;48.148;8.542;2023-11-21T15:50:12;6.20;99.90
19862;DHT22;10093;48.148;8.542;2023-11-21T15:52:40;6.20;99.90
19862;DHT22;10093;48.148;8.542;2023-11-21T15:55:05;6.10;99.90
19862;DHT22;10093;48.148;8.542;2023-11-21T15:57:32;6.00;99.90
19862;DHT22;10093;48.148;8.542;2023-11-21T15:59:57;6.00;99.90
19862;DHT22;10093;48.148;8.542;2023-11-21T16:02:23;5.90;99.90
19862;DHT22;10093;48.148;8.542;2023-11-21T16:04:49;6.10;99.90
19862;DHT22;10093;48.148;8.542;2023-11-21T16:07:14;6.10;99.90